Rices Crossing, Texas
Current Conditions -  °F | °C
As of 8:58 AM on Thursday 30 Oct 2014 (Local Time) from KGRK Reporting Station
Overcast Overcast  
Wind Chill: 16°   Ceiling: 3600
Heat Index: 16°   Visibility: 10mi
Dew Point: 14°   Wind: 5mph
Humidity: 85%   Direction: 110°ESE
Pressure: 30.16"   Gusts: NA
Location:  30.5793°N, 97.5096°W
Report Text: KGRK 301358Z AUTO 11004KT 10SM SCT020 OVC036 16/14 A3016 RMK AO2 SLP208 T01600135
Loading
Personal Weather Stations






























Interactive Weather Map
Tropical Storm Tracking
New forecast layout! Learn more

10-Day Weather Forecast

Advertisements
Track Severe Weather on mobile